sensor_id;sensor_type;location;lat;lon;timestamp;temperature;humidity
8862;DHT22;4799;50.996;4.754;2023-06-10T00:01:45;22.30;80.70
8862;DHT22;4799;50.996;4.754;2023-06-10T00:04:16;22.30;81.80
8862;DHT22;4799;50.996;4.754;2023-06-10T00:06:43;22.20;82.40
8862;DHT22;4799;50.996;4.754;2023-06-10T00:09:09;22.20;82.70
8862;DHT22;4799;50.996;4.754;2023-06-10T00:11:40;22.20;84.30
8862;DHT22;4799;50.996;4.754;2023-06-10T00:14:06;22.10;84.20
8862;DHT22;4799;50.996;4.754;2023-06-10T00:16:33;22.10;85.70
8862;DHT22;4799;50.996;4.754;2023-06-10T00:19:03;22.00;86.20
8862;DHT22;4799;50.996;4.754;2023-06-10T00:21:33;22.00;86.70
8862;DHT22;4799;50.996;4.754;2023-06-10T00:24:06;21.90;87.70
8862;DHT22;4799;50.996;4.754;2023-06-10T00:26:35;21.90;88.10
8862;DHT22;4799;50.996;4.754;2023-06-10T00:29:01;21.80;89.00
8862;DHT22;4799;50.996;4.754;2023-06-10T00:31:26;21.80;89.40
8862;DHT22;4799;50.996;4.754;2023-06-10T00:33:52;21.80;90.40
8862;DHT22;4799;50.996;4.754;2023-06-10T00:36:18;21.70;90.40
8862;DHT22;4799;50.996;4.754;2023-06-10T00:38:44;21.70;90.80
8862;DHT22;4799;50.996;4.754;2023-06-10T00:41:10;21.70;91.20
8862;DHT22;4799;50.996;4.754;2023-06-10T00:43:35;21.60;91.50
8862;DHT22;4799;50.996;4.754;2023-06-10T00:46:01;21.60;91.20
8862;DHT22;4799;50.996;4.754;2023-06-10T00:48:27;21.50;91.70
8862;DHT22;4799;50.996;4.754;2023-06-10T00:50:54;21.50;92.10
8862;DHT22;4799;50.996;4.754;2023-06-10T00:53:22;21.40;92.20
8862;DHT22;4799;50.996;4.754;2023-06-10T00:55:48;21.40;92.70
8862;DHT22;4799;50.996;4.754;2023-06-10T00:58:15;21.40;92.70
8862;DHT22;4799;50.996;4.754;2023-06-10T01:00:41;21.30;93.30
8862;DHT22;4799;50.996;4.754;2023-06-10T01:03:06;21.30;93.30
8862;DHT22;4799;50.996;4.754;2023-06-10T01:05:34;21.20;93.60
8862;DHT22;4799;50.996;4.754;2023-06-10T01:08:19;21.20;93.90
8862;DHT22;4799;50.996;4.754;2023-06-10T01:10:54;21.10;94.40
8862;DHT22;4799;50.996;4.754;2023-06-10T01:13:23;21.00;94.50
8862;DHT22;4799;50.996;4.754;2023-06-10T01:15:55;21.00;94.80
8862;DHT22;4799;50.996;4.754;2023-06-10T01:18:21;21.00;94.80
8862;DHT22;4799;50.996;4.754;2023-06-10T01:20:47;21.00;95.40
8862;DHT22;4799;50.996;4.754;2023-06-10T01:23:14;20.90;95.30
8862;DHT22;4799;50.996;4.754;2023-06-10T01:25:57;20.90;95.70
8862;DHT22;4799;50.996;4.754;2023-06-10T01:31:17;20.80;96.00
8862;DHT22;4799;50.996;4.754;2023-06-10T01:33:47;20.80;96.50
8862;DHT22;4799;50.996;4.754;2023-06-10T01:36:15;20.70;96.10
8862;DHT22;4799;50.996;4.754;2023-06-10T01:38:46;20.70;96.80
8862;DHT22;4799;50.996;4.754;2023-06-10T01:41:17;20.70;96.60
8862;DHT22;4799;50.996;4.754;2023-06-10T01:43:44;20.60;97.30
8862;DHT22;4799;50.996;4.754;2023-06-10T01:46:10;20.60;97.20
8862;DHT22;4799;50.996;4.754;2023-06-10T01:48:37;20.60;97.60
8862;DHT22;4799;50.996;4.754;2023-06-10T01:51:04;20.50;97.50
8862;DHT22;4799;50.996;4.754;2023-06-10T01:53:30;20.40;97.90
8862;DHT22;4799;50.996;4.754;2023-06-10T01:55:56;20.40;98.60
8862;DHT22;4799;50.996;4.754;2023-06-10T01:58:21;20.30;98.80
8862;DHT22;4799;50.996;4.754;2023-06-10T02:00:47;20.40;98.70
8862;DHT22;4799;50.996;4.754;2023-06-10T02:03:13;20.30;98.90
8862;DHT22;4799;50.996;4.754;2023-06-10T02:05:39;20.30;99.30
8862;DHT22;4799;50.996;4.754;2023-06-10T02:08:05;20.30;99.10
8862;DHT22;4799;50.996;4.754;2023-06-10T02:10:30;20.20;99.90
8862;DHT22;4799;50.996;4.754;2023-06-10T02:12:56;20.20;99.80
8862;DHT22;4799;50.996;4.754;2023-06-10T02:15:22;20.20;99.90
8862;DHT22;4799;50.996;4.754;2023-06-10T02:17:48;20.20;99.90
8862;DHT22;4799;50.996;4.754;2023-06-10T02:20:15;20.10;99.90
8862;DHT22;4799;50.996;4.754;2023-06-10T02:22:40;20.10;99.90
8862;DHT22;4799;50.996;4.754;2023-06-10T02:25:06;20.00;99.90
8862;DHT22;4799;50.996;4.754;2023-06-10T02:27:32;20.00;99.90
8862;DHT22;4799;50.996;4.754;2023-06-10T02:29:58;20.00;99.90
8862;DHT22;4799;50.996;4.754;2023-06-10T02:32:24;19.90;99.90
8862;DHT22;4799;50.996;4.754;2023-06-10T02:34:51;19.90;99.90
8862;DHT22;4799;50.996;4.754;2023-06-10T02:37:17;19.90;99.90
8862;DHT22;4799;50.996;4.754;2023-06-10T02:39:43;19.80;99.90
8862;DHT22;4799;50.996;4.754;2023-06-10T02:42:09;19.80;99.90
8862;DHT22;4799;50.996;4.754;2023-06-10T02:44:36;19.80;99.90
8862;DHT22;4799;50.996;4.754;2023-06-10T02:47:01;19.70;99.90
8862;DHT22;4799;50.996;4.754;2023-06-10T02:49:27;19.70;99.90
8862;DHT22;4799;50.996;4.754;2023-06-10T02:51:54;19.60;99.90
8862;DHT22;4799;50.996;4.754;2023-06-10T02:54:20;19.60;99.90
8862;DHT22;4799;50.996;4.754;2023-06-10T02:56:46;19.60;99.90
8862;DHT22;4799;50.996;4.754;2023-06-10T02:59:14;19.60;99.90
8862;DHT22;4799;50.996;4.754;2023-06-10T03:01:40;19.50;99.90
8862;DHT22;4799;50.996;4.754;2023-06-10T03:04:06;19.50;99.90
8862;DHT22;4799;50.996;4.754;2023-06-10T03:06:32;19.50;99.90
8862;DHT22;4799;50.996;4.754;2023-06-10T03:09:02;19.40;99.90
8862;DHT22;4799;50.996;4.754;2023-06-10T03:11:30;19.40;99.90
8862;DHT22;4799;50.996;4.754;2023-06-10T03:13:57;19.40;99.90
8862;DHT22;4799;50.996;4.754;2023-06-10T03:16:22;19.30;99.90
8862;DHT22;4799;50.996;4.754;2023-06-10T03:18:51;19.30;99.90
8862;DHT22;4799;50.996;4.754;2023-06-10T03:21:16;19.30;99.90
8862;DHT22;4799;50.996;4.754;2023-06-10T03:23:42;19.20;99.90
8862;DHT22;4799;50.996;4.754;2023-06-10T03:26:08;19.20;99.90
8862;DHT22;4799;50.996;4.754;2023-06-10T03:28:35;19.20;99.90
8862;DHT22;4799;50.996;4.754;2023-06-10T03:31:01;19.20;99.90
8862;DHT22;4799;50.996;4.754;2023-06-10T03:33:27;19.20;99.90
8862;DHT22;4799;50.996;4.754;2023-06-10T03:35:53;19.10;99.90
8862;DHT22;4799;50.996;4.754;2023-06-10T03:38:19;19.10;99.90
8862;DHT22;4799;50.996;4.754;2023-06-10T03:40:44;19.10;99.90
8862;DHT22;4799;50.996;4.754;2023-06-10T03:43:10;19.10;99.90
8862;DHT22;4799;50.996;4.754;2023-06-10T03:45:36;19.10;99.90
8862;DHT22;4799;50.996;4.754;2023-06-10T03:48:02;19.10;99.90
8862;DHT22;4799;50.996;4.754;2023-06-10T03:50:29;19.10;99.90
8862;DHT22;4799;50.996;4.754;2023-06-10T03:52:55;19.10;99.90
8862;DHT22;4799;50.996;4.754;2023-06-10T03:55:21;19.10;99.90
8862;DHT22;4799;50.996;4.754;2023-06-10T03:57:47;19.20;99.90
8862;DHT22;4799;50.996;4.754;2023-06-10T04:00:15;19.20;99.90
8862;DHT22;4799;50.996;4.754;2023-06-10T04:02:43;19.30;99.90
8862;DHT22;4799;50.996;4.754;2023-06-10T04:05:12;19.40;99.90
8862;DHT22;4799;50.996;4.754;2023-06-10T04:07:37;19.50;99.90
8862;DHT22;4799;50.996;4.754;2023-06-10T04:10:07;19.60;99.90
8862;DHT22;4799;50.996;4.754;2023-06-10T04:12:33;19.60;99.90
8862;DHT22;4799;50.996;4.754;2023-06-10T04:14:58;19.70;99.90
8862;DHT22;4799;50.996;4.754;2023-06-10T04:17:25;19.80;99.90
8862;DHT22;4799;50.996;4.754;2023-06-10T04:19:51;19.90;99.90
8862;DHT22;4799;50.996;4.754;2023-06-10T04:22:18;20.10;99.90
8862;DHT22;4799;50.996;4.754;2023-06-10T04:24:44;20.10;99.90
8862;DHT22;4799;50.996;4.754;2023-06-10T04:27:09;20.20;99.90
8862;DHT22;4799;50.996;4.754;2023-06-10T04:29:36;20.30;99.90
8862;DHT22;4799;50.996;4.754;2023-06-10T04:32:02;20.40;99.90
8862;DHT22;4799;50.996;4.754;2023-06-10T04:34:28;20.50;99.90
8862;DHT22;4799;50.996;4.754;2023-06-10T04:36:54;20.50;99.90
8862;DHT22;4799;50.996;4.754;2023-06-10T04:39:19;20.60;99.90
8862;DHT22;4799;50.996;4.754;2023-06-10T04:41:46;20.70;99.90
8862;DHT22;4799;50.996;4.754;2023-06-10T04:44:12;20.80;99.90
8862;DHT22;4799;50.996;4.754;2023-06-10T04:46:38;20.80;99.90
8862;DHT22;4799;50.996;4.754;2023-06-10T04:49:03;20.90;99.90
8862;DHT22;4799;50.996;4.754;2023-06-10T04:51:30;20.90;99.90
8862;DHT22;4799;50.996;4.754;2023-06-10T04:53:57;20.90;99.90
8862;DHT22;4799;50.996;4.754;2023-06-10T04:56:23;20.90;99.90
8862;DHT22;4799;50.996;4.754;2023-06-10T04:58:49;20.90;99.90
8862;DHT22;4799;50.996;4.754;2023-06-10T05:01:15;20.80;99.90
8862;DHT22;4799;50.996;4.754;2023-06-10T05:03:41;20.80;99.90
8862;DHT22;4799;50.996;4.754;2023-06-10T05:06:07;20.80;99.90
8862;DHT22;4799;50.996;4.754;2023-06-10T05:08:33;20.80;99.90
8862;DHT22;4799;50.996;4.754;2023-06-10T05:10:59;20.80;99.90
8862;DHT22;4799;50.996;4.754;2023-06-10T05:13:24;20.80;99.90
8862;DHT22;4799;50.996;4.754;2023-06-10T05:15:50;20.80;99.90
8862;DHT22;4799;50.996;4.754;2023-06-10T05:18:16;20.80;99.90
8862;DHT22;4799;50.996;4.754;2023-06-10T05:20:42;20.80;99.90
8862;DHT22;4799;50.996;4.754;2023-06-10T05:23:07;20.90;99.90
8862;DHT22;4799;50.996;4.754;2023-06-10T05:25:33;20.90;99.90
8862;DHT22;4799;50.996;4.754;2023-06-10T05:27:59;20.90;99.90
8862;DHT22;4799;50.996;4.754;2023-06-10T05:30:25;21.00;99.90
8862;DHT22;4799;50.996;4.754;2023-06-10T05:32:52;21.00;99.90
8862;DHT22;4799;50.996;4.754;2023-06-10T05:35:22;21.10;99.90
8862;DHT22;4799;50.996;4.754;2023-06-10T05:37:48;21.20;99.90
8862;DHT22;4799;50.996;4.754;2023-06-10T05:40:14;21.20;99.90
8862;DHT22;4799;50.996;4.754;2023-06-10T05:42:39;21.30;99.90
8862;DHT22;4799;50.996;4.754;2023-06-10T05:45:06;21.30;99.90
8862;DHT22;4799;50.996;4.754;2023-06-10T05:47:32;21.40;99.90
8862;DHT22;4799;50.996;4.754;2023-06-10T05:49:58;21.50;99.90
8862;DHT22;4799;50.996;4.754;2023-06-10T05:52:23;21.50;99.90
8862;DHT22;4799;50.996;4.754;2023-06-10T05:54:50;21.50;99.90
8862;DHT22;4799;50.996;4.754;2023-06-10T05:57:16;21.60;99.90
8862;DHT22;4799;50.996;4.754;2023-06-10T05:59:41;21.70;99.90
8862;DHT22;4799;50.996;4.754;2023-06-10T06:02:07;21.80;99.90
8862;DHT22;4799;50.996;4.754;2023-06-10T06:04:33;21.80;99.90
8862;DHT22;4799;50.996;4.754;2023-06-10T06:06:59;21.90;99.90
8862;DHT22;4799;50.996;4.754;2023-06-10T06:09:25;22.00;99.90
8862;DHT22;4799;50.996;4.754;2023-06-10T06:11:51;22.10;99.90
8862;DHT22;4799;50.996;4.754;2023-06-10T06:14:17;22.10;99.70
8862;DHT22;4799;50.996;4.754;2023-06-10T06:16:42;22.20;99.70
8862;DHT22;4799;50.996;4.754;2023-06-10T06:19:08;22.30;99.60
8862;DHT22;4799;50.996;4.754;2023-06-10T06:21:35;22.40;99.40
8862;DHT22;4799;50.996;4.754;2023-06-10T06:24:00;22.50;99.10
8862;DHT22;4799;50.996;4.754;2023-06-10T06:26:26;22.50;98.60
8862;DHT22;4799;50.996;4.754;2023-06-10T06:28:52;22.50;98.60
8862;DHT22;4799;50.996;4.754;2023-06-10T06:31:18;22.60;98.60
8862;DHT22;4799;50.996;4.754;2023-06-10T06:33:44;22.70;98.20
8862;DHT22;4799;50.996;4.754;2023-06-10T06:36:09;22.80;97.90
8862;DHT22;4799;50.996;4.754;2023-06-10T06:38:35;22.90;97.20
8862;DHT22;4799;50.996;4.754;2023-06-10T06:41:01;22.90;96.90
8862;DHT22;4799;50.996;4.754;2023-06-10T06:43:29;23.00;96.60
8862;DHT22;4799;50.996;4.754;2023-06-10T06:45:57;23.10;96.10
8862;DHT22;4799;50.996;4.754;2023-06-10T06:48:23;23.20;95.80
8862;DHT22;4799;50.996;4.754;2023-06-10T06:50:49;23.20;96.10
8862;DHT22;4799;50.996;4.754;2023-06-10T06:53:15;23.30;96.00
8862;DHT22;4799;50.996;4.754;2023-06-10T06:55:41;23.40;95.40
8862;DHT22;4799;50.996;4.754;2023-06-10T06:58:06;23.50;95.50
8862;DHT22;4799;50.996;4.754;2023-06-10T07:00:32;23.50;95.10
8862;DHT22;4799;50.996;4.754;2023-06-10T07:02:58;23.60;94.30
8862;DHT22;4799;50.996;4.754;2023-06-10T07:05:24;23.60;94.20
8862;DHT22;4799;50.996;4.754;2023-06-10T07:07:53;23.70;93.90
8862;DHT22;4799;50.996;4.754;2023-06-10T07:10:24;23.80;93.40
8862;DHT22;4799;50.996;4.754;2023-06-10T07:12:51;23.90;93.00
8862;DHT22;4799;50.996;4.754;2023-06-10T07:15:17;24.00;92.50
8862;DHT22;4799;50.996;4.754;2023-06-10T07:17:43;24.00;92.00
8862;DHT22;4799;50.996;4.754;2023-06-10T07:20:09;24.10;91.70
8862;DHT22;4799;50.996;4.754;2023-06-10T07:22:35;24.20;92.00
8862;DHT22;4799;50.996;4.754;2023-06-10T07:25:01;24.30;92.00
8862;DHT22;4799;50.996;4.754;2023-06-10T07:27:27;24.40;91.50
8862;DHT22;4799;50.996;4.754;2023-06-10T07:29:53;24.40;91.50
8862;DHT22;4799;50.996;4.754;2023-06-10T07:32:19;24.50;90.40
8862;DHT22;4799;50.996;4.754;2023-06-10T07:34:47;24.60;89.80
8862;DHT22;4799;50.996;4.754;2023-06-10T07:37:13;24.60;89.30
8862;DHT22;4799;50.996;4.754;2023-06-10T07:39:39;24.70;88.90
8862;DHT22;4799;50.996;4.754;2023-06-10T07:42:05;24.80;89.40
8862;DHT22;4799;50.996;4.754;2023-06-10T07:44:31;24.90;88.40
8862;DHT22;4799;50.996;4.754;2023-06-10T07:46:57;24.90;88.30
8862;DHT22;4799;50.996;4.754;2023-06-10T07:49:23;24.90;86.10
8862;DHT22;4799;50.996;4.754;2023-06-10T07:51:50;25.10;86.00
8862;DHT22;4799;50.996;4.754;2023-06-10T07:54:16;25.10;86.40
8862;DHT22;4799;50.996;4.754;2023-06-10T07:56:42;25.20;86.80
8862;DHT22;4799;50.996;4.754;2023-06-10T07:59:07;25.20;87.00
8862;DHT22;4799;50.996;4.754;2023-06-10T08:01:33;25.40;86.50
8862;DHT22;4799;50.996;4.754;2023-06-10T08:04:01;25.50;83.80
8862;DHT22;4799;50.996;4.754;2023-06-10T08:06:27;25.60;81.70
8862;DHT22;4799;50.996;4.754;2023-06-10T08:08:52;25.70;82.10
8862;DHT22;4799;50.996;4.754;2023-06-10T08:11:18;25.80;80.80
8862;DHT22;4799;50.996;4.754;2023-06-10T08:13:44;25.90;81.50
8862;DHT22;4799;50.996;4.754;2023-06-10T08:16:10;25.90;81.00
8862;DHT22;4799;50.996;4.754;2023-06-10T08:18:36;26.00;79.20
8862;DHT22;4799;50.996;4.754;2023-06-10T08:21:01;26.10;78.00
8862;DHT22;4799;50.996;4.754;2023-06-10T08:23:27;26.30;77.60
8862;DHT22;4799;50.996;4.754;2023-06-10T08:25:53;26.30;76.20
8862;DHT22;4799;50.996;4.754;2023-06-10T08:28:19;26.30;75.80
8862;DHT22;4799;50.996;4.754;2023-06-10T08:30:45;26.40;75.50
8862;DHT22;4799;50.996;4.754;2023-06-10T08:33:10;26.50;75.00
8862;DHT22;4799;50.996;4.754;2023-06-10T08:35:36;26.50;74.10
8862;DHT22;4799;50.996;4.754;2023-06-10T08:38:02;26.60;73.00
8862;DHT22;4799;50.996;4.754;2023-06-10T08:40:28;26.70;73.50
8862;DHT22;4799;50.996;4.754;2023-06-10T08:43:08;26.70;72.20
8862;DHT22;4799;50.996;4.754;2023-06-10T08:45:36;26.90;71.90
8862;DHT22;4799;50.996;4.754;2023-06-10T08:48:03;26.90;72.70
8862;DHT22;4799;50.996;4.754;2023-06-10T08:50:34;26.90;72.60
8862;DHT22;4799;50.996;4.754;2023-06-10T08:53:02;27.00;72.10
8862;DHT22;4799;50.996;4.754;2023-06-10T08:55:36;27.00;70.30
8862;DHT22;4799;50.996;4.754;2023-06-10T08:58:02;27.10;69.90
8862;DHT22;4799;50.996;4.754;2023-06-10T09:00:29;27.10;69.70
8862;DHT22;4799;50.996;4.754;2023-06-10T09:02:56;27.20;68.00
8862;DHT22;4799;50.996;4.754;2023-06-10T09:05:22;27.20;66.50
8862;DHT22;4799;50.996;4.754;2023-06-10T09:07:48;27.20;66.60
8862;DHT22;4799;50.996;4.754;2023-06-10T09:10:15;27.40;66.00
8862;DHT22;4799;50.996;4.754;2023-06-10T09:12:41;27.50;66.90
8862;DHT22;4799;50.996;4.754;2023-06-10T09:15:07;27.50;66.30
8862;DHT22;4799;50.996;4.754;2023-06-10T09:17:33;27.60;64.90
8862;DHT22;4799;50.996;4.754;2023-06-10T09:20:00;27.60;64.20
8862;DHT22;4799;50.996;4.754;2023-06-10T09:22:25;27.70;63.70
8862;DHT22;4799;50.996;4.754;2023-06-10T09:25:09;27.70;63.70
8862;DHT22;4799;50.996;4.754;2023-06-10T09:27:46;27.90;62.70
8862;DHT22;4799;50.996;4.754;2023-06-10T09:30:25;28.00;59.90
8862;DHT22;4799;50.996;4.754;2023-06-10T09:32:55;28.10;59.50
8862;DHT22;4799;50.996;4.754;2023-06-10T09:35:23;28.20;59.00
8862;DHT22;4799;50.996;4.754;2023-06-10T09:37:52;28.10;57.80
8862;DHT22;4799;50.996;4.754;2023-06-10T09:40:18;28.20;57.90
8862;DHT22;4799;50.996;4.754;2023-06-10T09:42:43;28.40;58.60
8862;DHT22;4799;50.996;4.754;2023-06-10T09:45:09;28.40;58.10
8862;DHT22;4799;50.996;4.754;2023-06-10T09:47:35;28.40;56.50
8862;DHT22;4799;50.996;4.754;2023-06-10T09:50:01;28.40;56.60
8862;DHT22;4799;50.996;4.754;2023-06-10T09:52:28;28.50;55.90
8862;DHT22;4799;50.996;4.754;2023-06-10T09:55:00;28.50;55.80
8862;DHT22;4799;50.996;4.754;2023-06-10T09:57:31;28.70;55.80
8862;DHT22;4799;50.996;4.754;2023-06-10T09:59:59;28.80;53.70
8862;DHT22;4799;50.996;4.754;2023-06-10T10:02:24;28.90;53.50
8862;DHT22;4799;50.996;4.754;2023-06-10T10:04:50;29.00;52.80
8862;DHT22;4799;50.996;4.754;2023-06-10T10:07:16;29.00;51.00
8862;DHT22;4799;50.996;4.754;2023-06-10T10:09:42;29.00;51.10
8862;DHT22;4799;50.996;4.754;2023-06-10T10:12:15;29.10;50.80
8862;DHT22;4799;50.996;4.754;2023-06-10T10:14:46;29.20;50.80
8862;DHT22;4799;50.996;4.754;2023-06-10T10:17:14;29.10;49.70
8862;DHT22;4799;50.996;4.754;2023-06-10T10:19:46;29.10;50.40
8862;DHT22;4799;50.996;4.754;2023-06-10T10:22:26;29.30;50.00
8862;DHT22;4799;50.996;4.754;2023-06-10T10:25:02;29.40;49.50
8862;DHT22;4799;50.996;4.754;2023-06-10T10:27:36;29.30;48.70
8862;DHT22;4799;50.996;4.754;2023-06-10T10:30:05;29.40;49.30
8862;DHT22;4799;50.996;4.754;2023-06-10T10:35:21;29.50;48.30
8862;DHT22;4799;50.996;4.754;2023-06-10T10:37:49;29.50;47.20
8862;DHT22;4799;50.996;4.754;2023-06-10T10:40:16;29.60;47.80
8862;DHT22;4799;50.996;4.754;2023-06-10T10:42:42;29.70;47.80
8862;DHT22;4799;50.996;4.754;2023-06-10T10:45:09;29.70;47.10
8862;DHT22;4799;50.996;4.754;2023-06-10T10:47:36;29.70;47.00
8862;DHT22;4799;50.996;4.754;2023-06-10T10:50:16;29.80;46.60
8862;DHT22;4799;50.996;4.754;2023-06-10T10:52:55;29.90;46.70
8862;DHT22;4799;50.996;4.754;2023-06-10T10:55:22;30.10;45.50
8862;DHT22;4799;50.996;4.754;2023-06-10T10:58:13;30.10;45.20
8862;DHT22;4799;50.996;4.754;2023-06-10T11:00:44;30.20;45.60
8862;DHT22;4799;50.996;4.754;2023-06-10T11:03:15;30.30;46.40
8862;DHT22;4799;50.996;4.754;2023-06-10T11:05:44;30.10;44.70
8862;DHT22;4799;50.996;4.754;2023-06-10T11:08:14;30.30;46.50
8862;DHT22;4799;50.996;4.754;2023-06-10T11:10:52;30.20;44.80
8862;DHT22;4799;50.996;4.754;2023-06-10T11:13:22;30.30;44.40
8862;DHT22;4799;50.996;4.754;2023-06-10T11:15:51;30.40;44.60
8862;DHT22;4799;50.996;4.754;2023-06-10T11:18:28;30.60;44.90
8862;DHT22;4799;50.996;4.754;2023-06-10T11:21:03;30.60;42.90
8862;DHT22;4799;50.996;4.754;2023-06-10T11:26:11;30.60;43.00
8862;DHT22;4799;50.996;4.754;2023-06-10T11:28:42;30.50;42.60
8862;DHT22;4799;50.996;4.754;2023-06-10T11:31:27;30.60;43.80
8862;DHT22;4799;50.996;4.754;2023-06-10T11:33:54;30.70;44.30
8862;DHT22;4799;50.996;4.754;2023-06-10T11:36:21;30.60;43.30
8862;DHT22;4799;50.996;4.754;2023-06-10T11:38:48;30.70;42.30
8862;DHT22;4799;50.996;4.754;2023-06-10T11:41:14;30.70;42.60
8862;DHT22;4799;50.996;4.754;2023-06-10T11:43:44;30.80;42.60
8862;DHT22;4799;50.996;4.754;2023-06-10T11:46:11;30.90;42.90
8862;DHT22;4799;50.996;4.754;2023-06-10T11:48:37;31.10;42.90
8862;DHT22;4799;50.996;4.754;2023-06-10T11:51:07;31.10;41.90
8862;DHT22;4799;50.996;4.754;2023-06-10T11:53:33;31.10;41.60
8862;DHT22;4799;50.996;4.754;2023-06-10T11:55:59;31.30;41.30
8862;DHT22;4799;50.996;4.754;2023-06-10T11:58:25;31.30;40.40
8862;DHT22;4799;50.996;4.754;2023-06-10T12:00:55;31.40;39.80
8862;DHT22;4799;50.996;4.754;2023-06-10T12:03:24;31.50;39.40
8862;DHT22;4799;50.996;4.754;2023-06-10T12:06:02;31.50;39.60
8862;DHT22;4799;50.996;4.754;2023-06-10T12:08:28;31.60;39.50
8862;DHT22;4799;50.996;4.754;2023-06-10T12:10:54;31.70;39.70
8862;DHT22;4799;50.996;4.754;2023-06-10T12:13:21;31.60;39.20
8862;DHT22;4799;50.996;4.754;2023-06-10T12:15:47;31.80;39.50
8862;DHT22;4799;50.996;4.754;2023-06-10T12:18:21;31.90;39.00
8862;DHT22;4799;50.996;4.754;2023-06-10T12:20:47;32.00;38.90
8862;DHT22;4799;50.996;4.754;2023-06-10T12:23:14;32.10;38.80
8862;DHT22;4799;50.996;4.754;2023-06-10T12:25:50;32.20;39.00
8862;DHT22;4799;50.996;4.754;2023-06-10T12:28:17;32.20;38.10
8862;DHT22;4799;50.996;4.754;2023-06-10T12:30:46;32.30;38.30
8862;DHT22;4799;50.996;4.754;2023-06-10T12:33:18;32.30;38.40
8862;DHT22;4799;50.996;4.754;2023-06-10T12:36:02;32.30;38.40
8862;DHT22;4799;50.996;4.754;2023-06-10T12:38:28;32.30;38.40
8862;DHT22;4799;50.996;4.754;2023-06-10T12:40:54;32.30;38.40
8862;DHT22;4799;50.996;4.754;2023-06-10T12:43:25;32.30;37.90
8862;DHT22;4799;50.996;4.754;2023-06-10T12:45:51;32.30;38.10
8862;DHT22;4799;50.996;4.754;2023-06-10T12:48:21;32.40;37.80
8862;DHT22;4799;50.996;4.754;2023-06-10T12:50:55;32.40;37.30
8862;DHT22;4799;50.996;4.754;2023-06-10T12:53:22;32.40;37.80
8862;DHT22;4799;50.996;4.754;2023-06-10T12:55:54;32.50;37.80
8862;DHT22;4799;50.996;4.754;2023-06-10T12:58:20;32.50;37.60
8862;DHT22;4799;50.996;4.754;2023-06-10T13:00:47;32.60;37.80
8862;DHT22;4799;50.996;4.754;2023-06-10T13:03:14;32.60;38.00
8862;DHT22;4799;50.996;4.754;2023-06-10T13:05:40;32.50;36.80
8862;DHT22;4799;50.996;4.754;2023-06-10T13:08:07;32.30;36.70
8862;DHT22;4799;50.996;4.754;2023-06-10T13:10:33;32.30;36.70
8862;DHT22;4799;50.996;4.754;2023-06-10T13:13:00;32.30;36.60
8862;DHT22;4799;50.996;4.754;2023-06-10T13:15:27;32.30;37.00
8862;DHT22;4799;50.996;4.754;2023-06-10T13:17:53;32.50;36.90
8862;DHT22;4799;50.996;4.754;2023-06-10T13:20:19;32.60;37.50
8862;DHT22;4799;50.996;4.754;2023-06-10T13:22:45;32.60;37.10
8862;DHT22;4799;50.996;4.754;2023-06-10T13:25:11;32.60;36.60
8862;DHT22;4799;50.996;4.754;2023-06-10T13:27:37;32.70;36.70
8862;DHT22;4799;50.996;4.754;2023-06-10T13:30:06;32.70;36.50
8862;DHT22;4799;50.996;4.754;2023-06-10T13:32:32;32.70;36.50
8862;DHT22;4799;50.996;4.754;2023-06-10T13:34:58;32.60;35.90
8862;DHT22;4799;50.996;4.754;2023-06-10T13:37:24;32.70;36.90
8862;DHT22;4799;50.996;4.754;2023-06-10T13:39:50;32.60;36.30
8862;DHT22;4799;50.996;4.754;2023-06-10T13:42:17;32.60;36.50
8862;DHT22;4799;50.996;4.754;2023-06-10T13:44:43;32.60;36.80
8862;DHT22;4799;50.996;4.754;2023-06-10T13:47:09;32.60;36.30
8862;DHT22;4799;50.996;4.754;2023-06-10T13:49:35;32.60;36.30
8862;DHT22;4799;50.996;4.754;2023-06-10T13:52:01;32.70;36.80
8862;DHT22;4799;50.996;4.754;2023-06-10T13:54:27;32.80;36.80
8862;DHT22;4799;50.996;4.754;2023-06-10T13:56:53;32.90;36.40
8862;DHT22;4799;50.996;4.754;2023-06-10T13:59:20;33.00;36.70
8862;DHT22;4799;50.996;4.754;2023-06-10T14:01:46;33.10;35.90
8862;DHT22;4799;50.996;4.754;2023-06-10T14:04:12;33.10;36.00
8862;DHT22;4799;50.996;4.754;2023-06-10T14:06:38;33.10;35.70
8862;DHT22;4799;50.996;4.754;2023-06-10T14:09:03;33.10;35.90
8862;DHT22;4799;50.996;4.754;2023-06-10T14:11:30;33.20;35.80
8862;DHT22;4799;50.996;4.754;2023-06-10T14:13:55;33.10;34.60
8862;DHT22;4799;50.996;4.754;2023-06-10T14:16:24;33.00;34.80
8862;DHT22;4799;50.996;4.754;2023-06-10T14:18:50;33.10;34.50
8862;DHT22;4799;50.996;4.754;2023-06-10T14:21:17;33.10;34.30
8862;DHT22;4799;50.996;4.754;2023-06-10T14:23:42;33.10;34.30
8862;DHT22;4799;50.996;4.754;2023-06-10T14:26:09;33.10;35.10
8862;DHT22;4799;50.996;4.754;2023-06-10T14:28:35;33.20;34.10
8862;DHT22;4799;50.996;4.754;2023-06-10T14:31:01;33.30;33.70
8862;DHT22;4799;50.996;4.754;2023-06-10T14:33:27;33.30;33.40
8862;DHT22;4799;50.996;4.754;2023-06-10T14:35:52;33.50;33.80
8862;DHT22;4799;50.996;4.754;2023-06-10T14:38:18;33.50;34.10
8862;DHT22;4799;50.996;4.754;2023-06-10T14:40:44;33.50;34.60
8862;DHT22;4799;50.996;4.754;2023-06-10T14:43:10;33.50;34.10
8862;DHT22;4799;50.996;4.754;2023-06-10T14:45:36;33.60;34.70
8862;DHT22;4799;50.996;4.754;2023-06-10T14:48:03;33.60;34.80
8862;DHT22;4799;50.996;4.754;2023-06-10T14:50:29;33.70;33.90
8862;DHT22;4799;50.996;4.754;2023-06-10T14:52:55;33.70;33.80
8862;DHT22;4799;50.996;4.754;2023-06-10T14:55:21;33.70;33.90
8862;DHT22;4799;50.996;4.754;2023-06-10T14:57:48;33.80;33.90
8862;DHT22;4799;50.996;4.754;2023-06-10T15:00:15;33.80;33.40
8862;DHT22;4799;50.996;4.754;2023-06-10T15:02:42;33.80;32.90
8862;DHT22;4799;50.996;4.754;2023-06-10T15:05:08;34.20;33.40
8862;DHT22;4799;50.996;4.754;2023-06-10T15:07:34;34.40;32.80
8862;DHT22;4799;50.996;4.754;2023-06-10T15:10:00;34.30;32.30
8862;DHT22;4799;50.996;4.754;2023-06-10T15:12:25;34.30;31.80
8862;DHT22;4799;50.996;4.754;2023-06-10T15:14:53;34.30;32.00
8862;DHT22;4799;50.996;4.754;2023-06-10T15:17:19;34.30;32.00
8862;DHT22;4799;50.996;4.754;2023-06-10T15:19:44;34.30;32.60
8862;DHT22;4799;50.996;4.754;2023-06-10T15:22:10;34.30;33.00
8862;DHT22;4799;50.996;4.754;2023-06-10T15:24:38;34.40;33.10
8862;DHT22;4799;50.996;4.754;2023-06-10T15:27:04;34.50;33.10
8862;DHT22;4799;50.996;4.754;2023-06-10T15:29:31;34.60;32.90
8862;DHT22;4799;50.996;4.754;2023-06-10T15:31:56;34.70;32.70
8862;DHT22;4799;50.996;4.754;2023-06-10T15:34:22;34.70;33.30
8862;DHT22;4799;50.996;4.754;2023-06-10T15:36:48;34.70;32.80
8862;DHT22;4799;50.996;4.754;2023-06-10T15:39:14;34.80;32.90
8862;DHT22;4799;50.996;4.754;2023-06-10T15:41:39;34.90;33.00
8862;DHT22;4799;50.996;4.754;2023-06-10T15:44:05;34.80;32.80
8862;DHT22;4799;50.996;4.754;2023-06-10T15:46:31;34.70;32.60
8862;DHT22;4799;50.996;4.754;2023-06-10T15:48:57;34.80;32.70
8862;DHT22;4799;50.996;4.754;2023-06-10T15:51:23;34.80;33.00
8862;DHT22;4799;50.996;4.754;2023-06-10T15:53:49;34.90;33.00
8862;DHT22;4799;50.996;4.754;2023-06-10T15:56:15;34.80;32.70
8862;DHT22;4799;50.996;4.754;2023-06-10T15:58:41;34.90;32.40
8862;DHT22;4799;50.996;4.754;2023-06-10T16:01:07;35.20;32.50
8862;DHT22;4799;50.996;4.754;2023-06-10T16:03:35;35.40;31.70
8862;DHT22;4799;50.996;4.754;2023-06-10T16:06:01;35.80;31.80
8862;DHT22;4799;50.996;4.754;2023-06-10T16:08:26;36.20;31.10
8862;DHT22;4799;50.996;4.754;2023-06-10T16:10:52;36.50;30.60